Time;durP1;ratioP1;P1;durP2;ratioP2;P2;SDS_P1;SDS_P2;PMS_P1;PMS_P2;Temp;Humidity;BMP_temperature;BMP_pressure;BME280_temperature;BME280_humidity;BME280_pressure;Samples;Min_cycle;Max_cycle;Signal;HPM_P1;HPM_P2
2022/10/15 00:01:19;;;;;;;0.28;0.28;;;13.30;99.90;;;;;;6243111;23;20394;-82
2022/10/15 00:03:46;;;;;;;0.40;0.40;;;13.30;99.90;;;;;;6240913;23;20487;-82
2022/10/15 00:06:16;;;;;;;0.20;0.20;;;13.40;99.90;;;;;;6251703;23;20757;-82
2022/10/15 00:08:43;;;;;;;0.20;0.20;;;13.40;99.90;;;;;;6251254;23;20390;-82
2022/10/15 00:11:19;;;;;;;0.30;0.30;;;13.40;99.90;;;;;;6253472;23;20390;-82
2022/10/15 00:13:47;;;;;;;0.57;0.57;;;13.40;99.90;;;;;;6250473;23;20385;-82
2022/10/15 00:16:16;;;;;;;0.20;0.20;;;13.40;99.90;;;;;;6242855;23;20765;-81
2022/10/15 00:18:44;;;;;;;0.37;0.30;;;13.40;99.90;;;;;;6251394;23;20716;-82
2022/10/15 00:21:20;;;;;;;0.30;0.30;;;13.40;99.90;;;;;;6252614;22;20436;-82
2022/10/15 00:23:48;;;;;;;1.40;0.40;;;13.40;99.90;;;;;;6244229;23;20390;-82
2022/10/15 00:26:24;;;;;;;0.50;0.50;;;13.40;99.90;;;;;;6240526;23;20451;-82
2022/10/15 00:28:53;;;;;;;0.40;0.40;;;13.40;99.90;;;;;;6242713;22;20398;-82
2022/10/15 00:31:23;;;;;;;0.43;0.43;;;13.40;99.90;;;;;;6252318;22;20381;-82
2022/10/15 00:33:51;;;;;;;0.30;0.30;;;13.40;99.90;;;;;;6250805;23;20714;-82
2022/10/15 00:36:21;;;;;;;0.50;0.50;;;13.40;99.90;;;;;;6248952;23;20576;-82
2022/10/15 00:38:49;;;;;;;0.35;0.35;;;13.40;99.90;;;;;;6252491;22;20452;-82
2022/10/15 00:41:25;;;;;;;0.40;0.40;;;13.40;99.90;;;;;;6242226;22;20443;-82
2022/10/15 00:43:55;;;;;;;0.45;0.45;;;13.40;99.90;;;;;;6246273;23;20422;-82
2022/10/15 00:46:25;;;;;;;0.55;0.55;;;13.40;99.90;;;;;;6251550;22;20389;-82
2022/10/15 00:48:57;;;;;;;0.47;0.47;;;13.50;99.90;;;;;;6240796;23;20929;-82
2022/10/15 00:51:34;;;;;;;0.40;0.40;;;13.50;99.90;;;;;;6240716;23;20477;-82
2022/10/15 00:54:01;;;;;;;0.50;0.50;;;13.40;99.90;;;;;;6250454;23;20385;-82
2022/10/15 00:56:30;;;;;;;0.40;0.40;;;13.50;99.90;;;;;;6242063;22;20602;-82
2022/10/15 00:58:57;;;;;;;0.47;0.47;;;13.50;99.90;;;;;;6241860;22;20390;-82
2022/10/15 01:01:24;;;;;;;0.43;0.43;;;13.50;99.90;;;;;;6250102;23;20755;-82
2022/10/15 01:03:59;;;;;;;0.60;0.60;;;13.60;99.90;;;;;;6249331;23;21311;-83
2022/10/15 01:06:28;;;;;;;0.50;0.50;;;13.50;99.90;;;;;;6250832;23;20398;-82
2022/10/15 01:08:55;;;;;;;0.40;0.40;;;13.50;99.90;;;;;;6240738;23;20393;-84
2022/10/15 01:11:45;;;;;;;0.47;0.47;;;13.50;99.90;;;;;;6240719;23;20421;-84
2022/10/15 01:14:48;;;;;;;0.60;0.60;;;13.50;99.90;;;;;;6251163;22;20377;-81
2022/10/15 01:17:23;;;;;;;0.50;0.50;;;13.60;99.90;;;;;;6252015;22;20393;-81
2022/10/15 01:20:28;;;;;;;0.50;0.50;;;13.50;99.90;;;;;;6250500;23;20382;-82
2022/10/15 01:23:32;;;;;;;0.57;0.57;;;13.60;99.90;;;;;;6240213;23;20394;-81
2022/10/15 01:26:33;;;;;;;0.68;0.68;;;13.60;99.90;;;;;;6240259;23;20394;-82
2022/10/15 01:29:24;;;;;;;0.80;0.80;;;13.60;99.90;;;;;;6251680;23;20392;-81
2022/10/15 01:32:18;;;;;;;0.50;0.50;;;13.70;99.90;;;;;;6241322;23;20409;-82
2022/10/15 01:35:30;;;;;;;0.60;0.60;;;13.70;99.90;;;;;;6250061;23;20397;-82
2022/10/15 01:38:35;;;;;;;0.60;0.60;;;13.70;99.90;;;;;;6241298;22;20397;-82
2022/10/15 01:41:32;;;;;;;0.80;0.80;;;13.70;99.90;;;;;;6128370;23;20433;-82
2022/10/15 01:44:03;;;;;;;0.80;0.80;;;13.70;99.90;;;;;;6127990;23;20413;-82
2022/10/15 01:47:07;;;;;;;0.70;0.70;;;13.70;99.90;;;;;;6118740;23;20520;-82
2022/10/15 01:49:39;;;;;;;0.98;0.98;;;13.70;99.90;;;;;;6041482;23;20401;-82
2022/10/15 01:52:13;;;;;;;0.73;0.73;;;13.70;99.90;;;;;;6055154;23;20409;-83
2022/10/15 01:54:41;;;;;;;0.80;0.80;;;13.70;99.90;;;;;;6040509;23;20435;-83
2022/10/15 01:57:17;;;;;;;0.93;0.93;;;13.70;99.90;;;;;;6019023;23;20742;-82
2022/10/15 01:59:51;;;;;;;0.70;0.70;;;13.80;99.90;;;;;;6009084;23;20728;-82
2022/10/15 02:02:18;;;;;;;0.90;0.88;;;13.70;99.90;;;;;;6055213;23;20910;-82
2022/10/15 02:04:44;;;;;;;0.60;0.60;;;13.70;99.90;;;;;;6017508;23;20727;-83
2022/10/15 02:07:37;;;;;;;0.38;0.38;;;13.70;99.90;;;;;;6041374;23;20402;-82
2022/10/15 02:10:22;;;;;;;0.68;0.68;;;13.70;99.90;;;;;;6041370;23;20815;-83
2022/10/15 02:12:57;;;;;;;0.60;0.57;;;13.70;99.90;;;;;;6041711;23;20404;-83
2022/10/15 02:15:49;;;;;;;0.60;0.60;;;13.70;99.90;;;;;;6065547;23;20401;-82
2022/10/15 02:18:25;;;;;;;0.77;0.77;;;13.80;99.90;;;;;;6147897;23;20391;-82
2022/10/15 02:20:57;;;;;;;0.70;0.70;;;13.80;99.90;;;;;;6123462;23;21258;-82
2022/10/15 02:23:30;;;;;;;0.80;0.80;;;13.80;99.90;;;;;;6185750;23;20385;-82
2022/10/15 02:26:17;;;;;;;0.60;0.60;;;13.80;99.90;;;;;;6240119;23;20420;-82
2022/10/15 02:28:49;;;;;;;0.60;0.60;;;13.80;99.90;;;;;;6240103;23;20421;-82
2022/10/15 02:31:38;;;;;;;0.70;0.70;;;13.80;99.90;;;;;;6239992;23;20390;-82
2022/10/15 02:34:44;;;;;;;0.80;0.80;;;13.80;99.90;;;;;;6239758;23;20390;-82
2022/10/15 02:37:33;;;;;;;0.82;0.82;;;13.80;99.90;;;;;;6240934;23;20900;-83
2022/10/15 02:40:00;;;;;;;0.70;0.70;;;13.80;99.90;;;;;;6240090;23;20456;-82
2022/10/15 02:42:30;;;;;;;0.73;0.73;;;13.80;99.90;;;;;;6249984;23;20390;-83
2022/10/15 02:44:57;;;;;;;0.80;0.80;;;13.70;99.90;;;;;;6249519;23;20916;-82
2022/10/15 02:47:23;;;;;;;0.60;0.60;;;13.70;99.90;;;;;;6240218;23;20390;-81
2022/10/15 02:49:55;;;;;;;0.50;0.50;;;13.70;99.90;;;;;;6241454;23;20718;-82
2022/10/15 02:52:22;;;;;;;0.80;0.80;;;13.70;99.90;;;;;;6240176;23;20424;-82
2022/10/15 02:54:49;;;;;;;0.60;0.60;;;13.70;99.90;;;;;;6238554;23;20390;-83
2022/10/15 02:57:15;;;;;;;0.70;0.70;;;13.70;99.90;;;;;;6239388;23;20396;-82
2022/10/15 02:59:50;;;;;;;0.50;0.50;;;13.70;99.90;;;;;;6239926;23;20390;-82
2022/10/15 03:02:16;;;;;;;1.30;0.68;;;13.70;99.90;;;;;;6239048;23;20899;-82
2022/10/15 03:04:45;;;;;;;0.70;0.70;;;13.70;99.90;;;;;;6239171;23;20417;-82
2022/10/15 03:07:13;;;;;;;0.82;0.82;;;13.70;99.90;;;;;;6249897;23;20390;-83
2022/10/15 03:09:42;;;;;;;0.50;0.50;;;13.70;99.90;;;;;;6239789;23;20482;-83
2022/10/15 03:12:09;;;;;;;0.73;0.73;;;13.70;99.90;;;;;;6239542;23;20468;-83
2022/10/15 03:14:40;;;;;;;0.70;0.70;;;13.70;99.90;;;;;;6249491;23;20388;-82
2022/10/15 03:17:07;;;;;;;0.50;0.50;;;13.70;99.90;;;;;;6241545;23;20397;-83
2022/10/15 03:19:34;;;;;;;0.73;0.73;;;13.70;99.90;;;;;;6241730;23;20393;-82
2022/10/15 03:22:04;;;;;;;0.70;0.70;;;13.60;99.90;;;;;;6240438;23;20389;-82
2022/10/15 03:24:31;;;;;;;0.47;0.47;;;13.60;99.90;;;;;;6241324;23;20390;-82
2022/10/15 03:26:57;;;;;;;0.43;0.43;;;13.60;99.90;;;;;;6241791;23;20413;-81
2022/10/15 03:29:24;;;;;;;0.70;0.70;;;13.60;99.90;;;;;;6243127;23;20417;-82
2022/10/15 03:31:51;;;;;;;0.70;0.70;;;13.70;99.90;;;;;;6239164;23;20390;-82
2022/10/15 03:34:18;;;;;;;0.50;0.50;;;13.60;99.90;;;;;;6249091;23;20390;-82
2022/10/15 03:36:44;;;;;;;0.30;0.30;;;13.60;99.90;;;;;;6250594;23;20392;-82
2022/10/15 03:39:12;;;;;;;0.45;0.45;;;13.70;99.90;;;;;;6239444;23;20465;-83
2022/10/15 03:41:42;;;;;;;0.40;0.40;;;13.70;99.90;;;;;;6239197;23;20389;-83
2022/10/15 03:44:10;;;;;;;0.32;0.32;;;13.60;99.90;;;;;;6250468;23;20397;-83
2022/10/15 03:46:37;;;;;;;0.30;0.30;;;13.60;99.90;;;;;;6250846;23;20394;-82
2022/10/15 03:49:04;;;;;;;0.80;0.50;;;13.60;99.90;;;;;;6238564;23;20389;-83
2022/10/15 03:51:30;;;;;;;0.50;0.50;;;13.60;99.90;;;;;;6250117;22;20873;-83
2022/10/15 03:54:00;;;;;;;0.40;0.40;;;13.60;99.90;;;;;;6249978;23;20381;-83
2022/10/15 03:56:27;;;;;;;0.20;0.20;;;13.60;99.90;;;;;;6248096;23;20390;-83
2022/10/15 03:58:54;;;;;;;0.60;0.60;;;13.60;99.90;;;;;;6250804;23;20719;-83
2022/10/15 04:01:20;;;;;;;0.50;0.50;;;13.70;99.90;;;;;;6250265;23;20896;-83
2022/10/15 04:03:51;;;;;;;0.35;0.35;;;13.60;99.90;;;;;;6249021;23;20382;-83
2022/10/15 04:06:18;;;;;;;0.40;0.40;;;13.60;99.90;;;;;;6240701;22;20753;-83
2022/10/15 04:08:45;;;;;;;0.43;0.43;;;13.60;99.90;;;;;;6249085;23;20382;-83
2022/10/15 04:11:12;;;;;;;0.55;0.55;;;13.60;99.90;;;;;;6250693;23;20459;-83
2022/10/15 04:13:39;;;;;;;0.30;0.30;;;13.60;99.90;;;;;;6240145;23;20386;-83
2022/10/15 04:16:06;;;;;;;0.40;0.40;;;13.50;99.90;;;;;;6240626;23;20380;-83
2022/10/15 04:18:32;;;;;;;0.50;0.50;;;13.50;99.90;;;;;;6240764;23;20397;-83
2022/10/15 04:21:00;;;;;;;0.40;0.40;;;13.60;99.90;;;;;;6250996;23;20389;-83
2022/10/15 04:23:29;;;;;;;0.28;0.28;;;13.60;99.90;;;;;;6248380;23;20417;-82
2022/10/15 04:26:05;;;;;;;0.40;0.40;;;13.60;99.90;;;;;;6238863;23;20385;-83
2022/10/15 04:28:32;;;;;;;0.30;0.30;;;13.50;99.90;;;;;;6239008;23;20394;-82
2022/10/15 04:30:59;;;;;;;0.45;0.45;;;13.60;99.90;;;;;;6249135;23;20884;-82
2022/10/15 04:33:26;;;;;;;0.30;0.30;;;13.60;99.90;;;;;;6238726;23;20393;-83
2022/10/15 04:36:05;;;;;;;0.40;0.40;;;13.60;99.90;;;;;;6238774;23;20441;-82
2022/10/15 04:38:33;;;;;;;0.30;0.30;;;13.50;99.90;;;;;;6240995;22;20414;-83
2022/10/15 04:41:05;;;;;;;0.47;0.47;;;13.60;99.90;;;;;;6242756;22;20393;-83
2022/10/15 04:43:32;;;;;;;0.32;0.32;;;13.60;99.90;;;;;;6240779;23;20394;-83
2022/10/15 04:46:01;;;;;;;0.32;0.32;;;13.50;99.90;;;;;;6242285;22;20452;-83
2022/10/15 04:48:30;;;;;;;0.43;0.43;;;13.60;99.90;;;;;;6250734;23;20393;-83
2022/10/15 04:51:13;;;;;;;0.30;0.30;;;13.60;99.90;;;;;;6241027;23;20393;-83
2022/10/15 04:53:40;;;;;;;0.30;0.30;;;13.50;99.90;;;;;;6251870;23;20448;-83
2022/10/15 04:56:11;;;;;;;0.30;0.30;;;13.60;99.90;;;;;;6241469;23;20583;-83
2022/10/15 04:58:38;;;;;;;0.35;0.35;;;13.60;99.90;;;;;;6252794;22;20389;-83
2022/10/15 05:01:07;;;;;;;0.40;0.40;;;13.50;99.90;;;;;;6240423;23;20390;-83
2022/10/15 05:03:34;;;;;;;0.40;0.40;;;13.50;99.90;;;;;;6240411;23;20405;-83
2022/10/15 05:06:09;;;;;;;0.40;0.40;;;13.50;99.90;;;;;;6241716;22;20390;-83
2022/10/15 05:08:36;;;;;;;0.30;0.30;;;13.40;99.90;;;;;;6240538;23;20398;-83
2022/10/15 05:11:14;;;;;;;0.50;0.50;;;13.40;99.90;;;;;;6250985;23;20695;-82
2022/10/15 05:13:42;;;;;;;0.43;0.43;;;13.40;99.90;;;;;;6250021;23;20390;-82
2022/10/15 05:16:19;;;;;;;0.20;0.20;;;13.30;99.90;;;;;;6240653;23;20460;-82
2022/10/15 05:18:48;;;;;;;0.32;0.32;;;13.30;99.90;;;;;;6260602;22;20865;-82
2022/10/15 05:21:16;;;;;;;0.40;0.40;;;13.30;99.90;;;;;;6240804;23;20394;-82
2022/10/15 05:23:44;;;;;;;0.30;0.30;;;13.30;99.90;;;;;;6238619;23;20912;-82
2022/10/15 05:26:13;;;;;;;0.20;0.20;;;13.30;99.90;;;;;;6239127;23;20382;-83
2022/10/15 05:28:40;;;;;;;0.20;0.20;;;13.20;99.90;;;;;;6240108;23;20440;-82
2022/10/15 05:31:11;;;;;;;0.30;0.30;;;13.10;99.90;;;;;;6249989;23;20750;-83
2022/10/15 05:33:45;;;;;;;0.35;0.35;;;13.20;99.90;;;;;;6251453;22;20387;-83
2022/10/15 05:36:19;;;;;;;0.28;0.28;;;13.20;99.90;;;;;;6250612;23;20385;-83
2022/10/15 05:38:50;;;;;;;0.80;0.50;;;13.20;99.90;;;;;;6240046;23;20394;-82
2022/10/15 05:41:21;;;;;;;0.50;0.50;;;13.10;99.90;;;;;;6252221;22;20722;-83
2022/10/15 05:43:52;;;;;;;0.40;0.40;;;13.10;99.90;;;;;;6240013;23;20473;-82
2022/10/15 05:46:19;;;;;;;0.40;0.40;;;13.10;99.90;;;;;;6240189;23;20443;-82
2022/10/15 05:48:56;;;;;;;0.20;0.20;;;13.10;99.90;;;;;;6250535;23;20386;-83
2022/10/15 05:51:24;;;;;;;0.20;0.20;;;13.10;99.90;;;;;;6239023;23;20885;-83
2022/10/15 05:53:52;;;;;;;0.30;0.30;;;13.10;99.90;;;;;;6241449;22;20396;-82
2022/10/15 05:56:19;;;;;;;0.60;0.60;;;13.10;99.90;;;;;;6241938;22;20424;-82
2022/10/15 05:58:46;;;;;;;0.30;0.30;;;13.10;99.90;;;;;;6241256;22;20939;-82
2022/10/15 06:01:30;;;;;;;0.52;0.52;;;13.10;99.90;;;;;;6240348;23;20469;-82
2022/10/15 06:03:57;;;;;;;0.30;0.30;;;13.20;99.90;;;;;;6251443;23;20398;-82
2022/10/15 06:06:25;;;;;;;0.20;0.20;;;13.20;99.90;;;;;;6241195;23;20386;-82
2022/10/15 06:08:54;;;;;;;0.20;0.20;;;13.20;99.90;;;;;;6250059;23;20390;-82
2022/10/15 06:11:24;;;;;;;0.30;0.30;;;13.20;99.90;;;;;;6250082;23;20418;-82
2022/10/15 06:13:56;;;;;;;0.20;0.20;;;13.20;99.90;;;;;;6247364;23;20424;-83
2022/10/15 06:16:23;;;;;;;0.30;0.30;;;13.20;99.90;;;;;;6250231;23;20883;-82
2022/10/15 06:18:52;;;;;;;0.30;0.30;;;13.20;99.90;;;;;;6241373;23;20390;-82
2022/10/15 06:21:19;;;;;;;0.20;0.20;;;13.20;99.90;;;;;;6249710;23;20444;-82
2022/10/15 06:23:46;;;;;;;0.20;0.20;;;13.20;99.90;;;;;;6241214;23;20393;-82
2022/10/15 06:26:12;;;;;;;1.20;0.32;;;13.20;99.90;;;;;;6239979;23;20390;-82
2022/10/15 06:28:39;;;;;;;0.33;0.33;;;13.20;99.90;;;;;;6252571;23;20448;-83
2022/10/15 06:31:06;;;;;;;0.17;0.17;;;13.20;99.90;;;;;;6241468;23;20401;-82
2022/10/15 06:33:34;;;;;;;0.20;0.20;;;13.20;99.90;;;;;;6251494;23;20396;-81
2022/10/15 06:36:06;;;;;;;0.30;0.30;;;13.20;99.90;;;;;;6251795;22;20869;-82
2022/10/15 06:38:33;;;;;;;0.40;0.30;;;13.30;99.90;;;;;;6241336;22;20386;-82
2022/10/15 06:41:03;;;;;;;0.20;0.20;;;13.30;99.90;;;;;;6239648;23;20462;-82
2022/10/15 06:43:30;;;;;;;0.10;0.10;;;13.30;99.90;;;;;;6238601;23;20397;-82
2022/10/15 06:46:01;;;;;;;0.20;0.20;;;13.30;99.90;;;;;;6239363;23;20393;-83
2022/10/15 06:48:28;;;;;;;0.25;0.25;;;13.30;99.90;;;;;;6239718;23;20520;-82
2022/10/15 06:50:58;;;;;;;0.30;0.30;;;13.40;99.90;;;;;;6249330;23;20385;-83
2022/10/15 06:53:28;;;;;;;0.20;0.20;;;13.40;99.90;;;;;;6250691;22;20495;-82
2022/10/15 06:55:57;;;;;;;0.30;0.30;;;13.40;99.90;;;;;;6239333;23;20455;-82
2022/10/15 06:58:23;;;;;;;0.20;0.20;;;13.40;99.90;;;;;;6249227;23;20849;-82
2022/10/15 07:00:58;;;;;;;0.10;0.10;;;13.50;99.90;;;;;;6239742;23;20390;-82
2022/10/15 07:03:24;;;;;;;0.20;0.20;;;13.50;99.90;;;;;;6249473;23;20765;-82
2022/10/15 07:05:51;;;;;;;0.10;0.10;;;13.50;99.90;;;;;;6249827;23;20811;-82
2022/10/15 07:08:18;;;;;;;0.30;0.20;;;13.50;99.90;;;;;;6239412;23;20390;-82
2022/10/15 07:10:45;;;;;;;0.30;0.30;;;13.60;99.90;;;;;;6251042;23;20389;-82
2022/10/15 07:13:13;;;;;;;0.10;0.10;;;13.60;99.90;;;;;;6238666;23;20444;-82
2022/10/15 07:15:39;;;;;;;0.10;0.10;;;13.70;99.90;;;;;;6239271;23;20401;-82
2022/10/15 07:18:06;;;;;;;0.20;0.20;;;13.70;99.90;;;;;;6239383;23;20877;-82
2022/10/15 07:20:33;;;;;;;0.23;0.23;;;13.70;99.90;;;;;;6239131;23;20409;-83
2022/10/15 07:23:01;;;;;;;0.40;0.40;;;13.80;99.90;;;;;;6240208;23;20405;-82
2022/10/15 07:25:28;;;;;;;0.20;0.20;;;13.80;99.90;;;;;;6240963;22;20393;-82
2022/10/15 07:27:55;;;;;;;0.20;0.20;;;13.80;99.90;;;;;;6240792;22;20420;-83
2022/10/15 07:30:26;;;;;;;0.40;0.40;;;13.90;99.90;;;;;;6249358;23;20398;-82
2022/10/15 07:32:56;;;;;;;0.20;0.20;;;14.00;99.90;;;;;;6249409;23;20742;-82
2022/10/15 07:35:24;;;;;;;0.30;0.30;;;14.00;99.90;;;;;;6239046;23;20393;-82
2022/10/15 07:38:00;;;;;;;0.30;0.30;;;14.00;99.90;;;;;;6240871;23;20421;-82
2022/10/15 07:40:27;;;;;;;0.40;0.40;;;13.90;99.90;;;;;;6249551;23;20753;-82
2022/10/15 07:42:56;;;;;;;0.40;0.40;;;14.00;99.90;;;;;;6248754;23;20762;-82
2022/10/15 07:45:23;;;;;;;0.40;0.40;;;14.10;99.90;;;;;;6250653;22;20559;-82
2022/10/15 07:47:55;;;;;;;0.40;0.40;;;14.20;99.90;;;;;;6249485;23;20782;-82
2022/10/15 07:50:51;;;;;;;0.30;0.30;;;14.40;99.90;;;;;;6240537;23;20443;-89
2022/10/15 07:53:19;;;;;;;0.50;0.30;;;14.50;99.90;;;;;;6237535;23;21479;-81
2022/10/15 07:55:48;;;;;;;0.35;0.35;;;14.60;99.90;;;;;;6238847;23;20389;-81
2022/10/15 07:58:15;;;;;;;0.40;0.40;;;14.70;99.90;;;;;;6238665;23;20397;-81
2022/10/15 08:00:41;;;;;;;0.35;0.35;;;14.80;99.90;;;;;;6238644;23;20931;-81
2022/10/15 08:03:14;;;;;;;0.30;0.30;;;14.90;99.90;;;;;;6238579;23;20393;-81
2022/10/15 08:05:44;;;;;;;0.40;0.40;;;14.90;99.90;;;;;;6248756;23;20769;-81
2022/10/15 08:08:10;;;;;;;0.50;0.50;;;14.90;99.90;;;;;;6249106;23;20452;-81
2022/10/15 08:10:37;;;;;;;0.20;0.20;;;15.00;99.90;;;;;;6240063;23;20917;-81
2022/10/15 08:13:04;;;;;;;0.45;0.45;;;15.10;99.90;;;;;;6241237;23;20389;-81
2022/10/15 08:15:30;;;;;;;0.50;0.50;;;15.10;99.90;;;;;;6242611;23;20858;-82
2022/10/15 08:17:59;;;;;;;0.50;0.50;;;15.10;99.90;;;;;;6242614;23;20476;-81
2022/10/15 08:20:26;;;;;;;0.50;0.50;;;15.20;99.90;;;;;;6241019;23;20390;-80
2022/10/15 08:22:52;;;;;;;0.50;0.50;;;15.30;99.90;;;;;;6240885;23;20397;-81
2022/10/15 08:25:19;;;;;;;0.40;0.40;;;15.40;99.90;;;;;;6240946;23;20455;-80
2022/10/15 08:27:46;;;;;;;0.30;0.30;;;15.40;99.90;;;;;;6242237;23;20893;-81
2022/10/15 08:30:13;;;;;;;0.40;0.40;;;15.40;99.90;;;;;;6242174;23;20386;-80
2022/10/15 08:32:39;;;;;;;0.40;0.40;;;15.60;99.90;;;;;;6241061;23;20394;-80
2022/10/15 08:35:06;;;;;;;0.38;0.38;;;15.80;99.90;;;;;;6250623;23;20753;-80
2022/10/15 08:37:33;;;;;;;0.60;0.60;;;15.80;99.90;;;;;;6242111;23;20768;-80
2022/10/15 08:40:00;;;;;;;0.50;0.50;;;16.00;73.70;;;;;;6242177;23;20443;-81
2022/10/15 08:42:34;;;;;;;0.30;0.30;;;16.10;30.60;;;;;;6242414;23;20440;-80
2022/10/15 08:45:09;;;;;;;0.45;0.45;;;16.30;9.70;;;;;;6240684;23;20397;-80
2022/10/15 08:47:46;;;;;;;0.52;0.52;;;16.40;1.00;;;;;;6242280;22;20472;-81
2022/10/15 08:50:28;;;;;;;0.90;0.30;;;16.30;1.00;;;;;;6243976;22;20393;-80
2022/10/15 08:52:57;;;;;;;0.20;0.20;;;16.20;1.00;;;;;;6243376;22;20507;-80
2022/10/15 08:55:32;;;;;;;0.20;0.20;;;16.30;1.00;;;;;;6242276;22;20394;-80
2022/10/15 08:58:18;;;;;;;0.30;0.30;;;16.50;1.00;;;;;;6251967;22;20390;-80
2022/10/15 09:01:03;;;;;;;0.20;0.20;;;16.70;1.00;;;;;;6240307;23;20393;-80
2022/10/15 09:03:36;;;;;;;0.30;0.30;;;16.90;1.00;;;;;;6240032;23;20385;-80
2022/10/15 09:06:27;;;;;;;0.30;0.30;;;16.90;99.90;;;;;;6240004;23;20393;-80
2022/10/15 09:09:14;;;;;;;0.30;0.30;;;17.00;99.90;;;;;;6241324;22;21098;-80
2022/10/15 09:12:17;;;;;;;0.30;0.30;;;17.10;99.90;;;;;;6241556;22;20394;-80
2022/10/15 09:14:47;;;;;;;0.20;0.20;;;17.20;99.90;;;;;;6241195;23;20737;-79
2022/10/15 09:17:25;;;;;;;0.30;0.30;;;17.20;99.90;;;;;;6241705;22;20762;-80
2022/10/15 09:19:55;;;;;;;0.38;0.38;;;16.90;99.90;;;;;;6241735;22;20394;-80
2022/10/15 09:22:30;;;;;;;0.47;0.47;;;17.10;1.00;;;;;;6240048;23;20429;-80
2022/10/15 09:24:58;;;;;;;0.50;0.50;;;17.20;99.90;;;;;;6239186;23;20450;-80
2022/10/15 09:27:34;;;;;;;0.20;0.20;;;17.40;99.90;;;;;;6241522;22;20401;-79
2022/10/15 09:30:09;;;;;;;0.20;0.20;;;17.70;1.00;;;;;;6240174;23;20398;-80
2022/10/15 09:32:50;;;;;;;0.40;0.40;;;17.90;64.70;;;;;;6242024;22;20386;-79
2022/10/15 09:35:26;;;;;;;0.40;0.40;;;18.00;1.00;;;;;;6251856;22;20418;-79
2022/10/15 09:38:23;;;;;;;0.40;0.40;;;18.00;1.00;;;;;;6243298;23;20386;-79
2022/10/15 09:41:15;;;;;;;0.30;0.30;;;17.90;99.90;;;;;;6241617;23;20390;-80
2022/10/15 09:43:46;;;;;;;0.30;0.30;;;17.80;99.90;;;;;;6241103;22;20390;-80
2022/10/15 09:46:13;;;;;;;0.20;0.20;;;18.00;99.90;;;;;;6239891;23;20455;-80
2022/10/15 09:49:07;;;;;;;0.30;0.30;;;18.10;99.90;;;;;;6240908;23;20394;-79
2022/10/15 09:51:41;;;;;;;0.20;0.20;;;18.20;99.90;;;;;;6239326;23;20881;-79
2022/10/15 09:54:25;;;;;;;0.30;0.30;;;18.20;99.90;;;;;;6239613;23;20390;-79
2022/10/15 09:56:56;;;;;;;0.20;0.20;;;17.70;99.90;;;;;;6249626;23;20465;-80
2022/10/15 09:59:24;;;;;;;0.20;0.20;;;17.50;1.00;;;;;;6239375;23;20397;-79
2022/10/15 10:02:24;;;;;;;0.30;0.30;;;17.20;99.90;;;;;;6239752;23;20394;-80
2022/10/15 10:05:19;;;;;;;0.30;0.30;;;16.90;1.00;;;;;;6239940;22;20931;-80
2022/10/15 10:07:46;;;;;;;0.20;0.20;;;16.80;99.90;;;;;;6241110;22;20400;-80
2022/10/15 10:10:27;;;;;;;0.22;0.22;;;16.70;99.90;;;;;;6239514;23;20397;-80
2022/10/15 10:12:55;;;;;;;0.20;0.20;;;16.50;1.00;;;;;;6240874;22;20386;-80
2022/10/15 10:15:28;;;;;;;0.20;0.20;;;16.40;99.90;;;;;;6249270;23;20956;-80
2022/10/15 10:17:56;;;;;;;0.20;0.20;;;16.40;99.90;;;;;;6240870;22;20385;-80
2022/10/15 10:20:24;;;;;;;0.22;0.20;;;16.50;1.00;;;;;;6240813;22;20468;-80
2022/10/15 10:22:56;;;;;;;0.40;0.20;;;16.70;1.00;;;;;;6240629;22;20878;-81
2022/10/15 10:25:27;;;;;;;0.20;0.20;;;16.90;1.00;;;;;;6240764;22;20850;-81
2022/10/15 10:28:04;;;;;;;0.25;0.25;;;17.00;1.00;;;;;;6238835;23;20866;-81
2022/10/15 10:31:02;;;;;;;0.30;0.30;;;17.10;1.00;;;;;;6239055;23;20390;-81
2022/10/15 10:33:32;;;;;;;0.28;0.28;;;17.40;1.00;;;;;;6262679;22;20444;-82
2022/10/15 10:36:00;;;;;;;0.20;0.20;;;17.50;1.00;;;;;;6239417;23;20394;-82
2022/10/15 10:38:36;;;;;;;0.20;0.20;;;17.60;99.90;;;;;;6241117;22;20504;-82
2022/10/15 10:41:08;;;;;;;0.80;0.30;;;17.40;1.00;;;;;;6239547;23;20447;-82
2022/10/15 10:43:38;;;;;;;0.20;0.20;;;17.10;1.00;;;;;;6239963;22;20591;-79
2022/10/15 10:46:23;;;;;;;0.20;0.20;;;16.90;99.90;;;;;;6240885;22;20413;-81
2022/10/15 10:48:53;;;;;;;0.30;0.30;;;17.00;99.90;;;;;;6239657;23;20427;-80
2022/10/15 10:51:25;;;;;;;0.20;0.20;;;17.00;1.00;;;;;;6240797;23;20393;-80
2022/10/15 10:53:57;;;;;;;0.40;0.40;;;17.10;99.90;;;;;;6250700;22;20769;-81
2022/10/15 10:56:35;;;;;;;0.30;0.30;;;17.20;99.90;;;;;;6250493;23;20431;-80
2022/10/15 10:59:36;;;;;;;0.20;0.20;;;17.30;99.90;;;;;;6241110;22;20440;-80
2022/10/15 11:02:11;;;;;;;0.20;0.20;;;17.50;24.40;;;;;;6240747;22;20452;-80
2022/10/15 11:04:38;;;;;;;0.28;0.28;;;17.40;1.00;;;;;;6238164;23;20896;-80
2022/10/15 11:07:28;;;;;;;1.20;0.30;;;17.30;1.00;;;;;;6240551;22;20394;-80
2022/10/15 11:10:09;;;;;;;0.28;0.28;;;17.40;99.90;;;;;;6250361;22;20444;-80
2022/10/15 11:12:51;;;;;;;0.30;0.30;;;17.60;1.00;;;;;;6249063;23;20869;-80
2022/10/15 11:16:03;;;;;;;0.50;0.47;;;17.90;99.90;;;;;;6239273;23;20394;-80
2022/10/15 11:18:52;;;;;;;0.40;0.40;;;18.10;1.00;;;;;;6117567;23;20456;-80
2022/10/15 11:21:49;;;;;;;0.60;0.40;;;18.00;1.00;;;;;;6102782;23;20399;-81
2022/10/15 11:24:36;;;;;;;0.30;0.30;;;17.80;99.90;;;;;;6117301;23;20408;-81
2022/10/15 11:27:14;;;;;;;0.30;0.30;;;17.40;1.00;;;;;;6117110;23;20396;-81
2022/10/15 11:29:52;;;;;;;0.25;0.25;;;17.30;99.90;;;;;;6117246;23;20641;-80
2022/10/15 11:32:28;;;;;;;0.28;0.28;;;17.10;1.00;;;;;;6127393;23;20479;-80
2022/10/15 11:35:47;;;;;;;0.50;0.50;;;16.90;99.90;;;;;;6116922;23;20447;-80
2022/10/15 11:38:47;;;;;;;0.30;0.30;;;16.80;68.00;;;;;;6117572;23;20475;-80
2022/10/15 11:41:37;;;;;;;0.40;0.40;;;16.80;33.60;;;;;;6117802;23;20437;-80
2022/10/15 11:44:25;;;;;;;0.13;0.13;;;16.80;1.00;;;;;;6126970;23;20452;-81
2022/10/15 11:47:03;;;;;;;0.15;0.15;;;17.00;99.90;;;;;;6117559;23;20495;-81
2022/10/15 11:49:58;;;;;;;0.30;0.30;;;17.10;1.00;;;;;;6119491;23;20396;-81
2022/10/15 11:52:48;;;;;;;0.30;0.30;;;17.20;99.90;;;;;;6191840;22;20393;-80
2022/10/15 11:55:28;;;;;;;0.43;0.43;;;17.20;1.00;;;;;;6250755;23;20394;-80
2022/10/15 11:58:00;;;;;;;0.30;0.30;;;17.20;99.90;;;;;;6240427;23;20389;-80
2022/10/15 12:00:50;;;;;;;0.30;0.30;;;17.20;1.00;;;;;;6241183;23;20390;-80
2022/10/15 12:03:21;;;;;;;0.90;0.35;;;17.20;1.00;;;;;;6240461;23;20412;-80
2022/10/15 12:06:05;;;;;;;0.60;0.30;;;17.10;1.00;;;;;;6251006;23;20385;-80
2022/10/15 12:08:35;;;;;;;0.30;0.30;;;17.00;99.90;;;;;;6241088;23;20394;-80
2022/10/15 12:11:18;;;;;;;0.30;0.30;;;17.10;1.00;;;;;;6242708;22;20420;-81
2022/10/15 12:14:04;;;;;;;0.25;0.25;;;17.00;18.00;;;;;;6241386;23;20396;-81
2022/10/15 12:16:42;;;;;;;0.30;0.30;;;17.00;1.00;;;;;;6242533;22;20452;-81
2022/10/15 12:19:23;;;;;;;0.10;0.10;;;17.00;99.90;;;;;;6240436;23;20396;-82
2022/10/15 12:21:55;;;;;;;0.28;0.28;;;17.10;91.50;;;;;;6242391;22;20489;-81
2022/10/15 12:24:43;;;;;;;0.40;0.40;;;17.10;99.90;;;;;;6240336;23;20390;-80
2022/10/15 12:27:19;;;;;;;0.20;0.20;;;17.10;1.00;;;;;;6250529;23;20397;-81
2022/10/15 12:29:50;;;;;;;0.30;0.30;;;17.20;1.00;;;;;;6240483;23;20909;-80
2022/10/15 12:32:50;;;;;;;0.30;0.30;;;17.30;1.00;;;;;;6242118;23;20393;-81
2022/10/15 12:35:18;;;;;;;0.20;0.20;;;17.30;67.80;;;;;;6241994;22;20385;-80
2022/10/15 12:37:48;;;;;;;0.20;0.20;;;17.20;99.90;;;;;;6253247;23;20398;-80
2022/10/15 12:40:20;;;;;;;0.22;0.17;;;17.20;99.90;;;;;;6243389;22;20390;-80
2022/10/15 12:43:15;;;;;;;0.30;0.30;;;17.20;1.00;;;;;;6243022;23;20386;-80
2022/10/15 12:45:53;;;;;;;0.20;0.20;;;17.20;99.90;;;;;;6225002;23;20810;-80
2022/10/15 12:48:29;;;;;;;0.40;0.30;;;17.10;99.90;;;;;;6252036;22;20388;-80
2022/10/15 12:51:15;;;;;;;0.20;0.20;;;17.20;90.70;;;;;;6250653;23;20385;-80
2022/10/15 12:53:43;;;;;;;0.23;0.23;;;17.20;1.00;;;;;;6239693;23;20398;-80
2022/10/15 12:56:10;;;;;;;0.20;0.20;;;17.20;99.90;;;;;;6241427;22;20393;-80
2022/10/15 12:58:38;;;;;;;0.20;0.20;;;17.30;1.00;;;;;;6242044;22;20390;-80
2022/10/15 13:01:48;;;;;;;0.20;0.20;;;17.30;99.90;;;;;;6250167;23;20385;-81
2022/10/15 13:04:15;;;;;;;0.20;0.20;;;17.40;99.90;;;;;;6241115;22;20393;-80
2022/10/15 13:06:45;;;;;;;0.20;0.20;;;17.40;99.90;;;;;;6251840;23;20394;-80
2022/10/15 13:09:29;;;;;;;0.30;0.30;;;17.60;99.90;;;;;;6240543;23;20397;-80
2022/10/15 13:12:00;;;;;;;0.10;0.10;;;17.70;99.90;;;;;;6239746;23;20397;-81
2022/10/15 13:14:27;;;;;;;0.10;0.10;;;17.80;99.90;;;;;;6240899;22;20390;-80
2022/10/15 13:16:55;;;;;;;0.10;0.10;;;17.90;99.90;;;;;;6241506;23;20870;-79
2022/10/15 13:19:27;;;;;;;0.17;0.17;;;18.00;1.00;;;;;;6241656;22;20417;-80
2022/10/15 13:21:56;;;;;;;0.20;0.20;;;18.00;1.00;;;;;;6241925;22;20517;-81
2022/10/15 13:24:25;;;;;;;0.20;0.20;;;18.10;1.00;;;;;;6241014;22;20390;-80